Time;durP1;ratioP1;P1;durP2;ratioP2;P2;SDS_P1;SDS_P2;PMS_P1;PMS_P2;Temp;Humidity;BMP_temperature;BMP_pressure;BME280_temperature;BME280_humidity;BME280_pressure;Samples;Min_cycle;Max_cycle;Signal;HPM_P1;HPM_P2
2022/11/23 00:00:57;;;;;;;8.90;3.28;;;10.30;84.60;;;;;;5048957;28;20030;-66
2022/11/23 00:03:22;;;;;;;8.98;3.65;;;10.30;84.60;;;;;;5029384;28;20036;-67
2022/11/23 00:05:48;;;;;;;8.38;3.70;;;10.30;84.60;;;;;;5035217;28;20029;-67
2022/11/23 00:08:13;;;;;;;9.60;3.63;;;10.30;84.60;;;;;;5034652;28;20045;-67
2022/11/23 00:10:39;;;;;;;10.75;3.80;;;10.30;84.60;;;;;;5034987;28;20040;-67
2022/11/23 00:13:05;;;;;;;8.70;3.50;;;10.30;84.70;;;;;;5022774;28;20037;-67
2022/11/23 00:15:31;;;;;;;7.50;3.28;;;10.30;84.70;;;;;;5033649;28;20030;-66
2022/11/23 00:17:59;;;;;;;8.40;3.92;;;10.30;84.70;;;;;;5034364;28;20458;-66
2022/11/23 00:20:24;;;;;;;9.65;3.92;;;10.30;84.80;;;;;;5034058;28;20063;-65
2022/11/23 00:22:50;;;;;;;8.77;4.13;;;10.30;84.80;;;;;;5030009;28;20033;-66
2022/11/23 00:25:16;;;;;;;8.55;4.05;;;10.40;84.80;;;;;;5034210;28;20029;-67
2022/11/23 00:27:41;;;;;;;8.23;3.47;;;10.30;84.70;;;;;;5035482;28;20124;-67
2022/11/23 00:30:09;;;;;;;10.70;4.05;;;10.40;84.80;;;;;;5034158;28;20365;-67
2022/11/23 00:32:34;;;;;;;11.30;4.28;;;10.40;84.80;;;;;;5032174;28;20025;-66
2022/11/23 00:35:00;;;;;;;10.52;4.05;;;10.40;84.80;;;;;;5033781;28;20459;-66
2022/11/23 00:37:25;;;;;;;9.30;4.70;;;10.40;84.80;;;;;;5034538;28;20102;-66
2022/11/23 00:39:53;;;;;;;7.30;4.00;;;10.40;84.80;;;;;;5034468;28;20136;-66
2022/11/23 00:42:19;;;;;;;7.82;4.05;;;10.40;84.80;;;;;;5033689;28;20061;-66
2022/11/23 00:44:44;;;;;;;12.10;4.18;;;10.40;84.70;;;;;;5040133;28;20029;-66
2022/11/23 00:47:10;;;;;;;9.68;4.60;;;10.40;84.70;;;;;;5034750;28;20029;-66
2022/11/23 00:49:36;;;;;;;11.07;4.20;;;10.40;84.70;;;;;;5031204;28;20025;-66
2022/11/23 00:52:01;;;;;;;9.45;4.60;;;10.40;84.70;;;;;;5033274;28;20057;-66
2022/11/23 00:54:27;;;;;;;7.35;4.07;;;10.50;84.70;;;;;;5033645;28;20496;-66
2022/11/23 00:56:54;;;;;;;10.15;4.93;;;10.50;84.70;;;;;;5033889;28;20029;-66
2022/11/23 00:59:21;;;;;;;9.60;4.68;;;10.50;84.70;;;;;;5048210;28;20021;-66
2022/11/23 01:01:48;;;;;;;11.98;4.72;;;10.50;84.70;;;;;;5049324;28;20025;-67
2022/11/23 01:04:13;;;;;;;13.77;5.68;;;10.50;84.70;;;;;;5033960;28;20033;-67
2022/11/23 01:06:40;;;;;;;8.40;4.50;;;10.50;84.70;;;;;;5033556;28;20112;-66
2022/11/23 01:09:17;;;;;;;9.73;4.25;;;10.50;84.70;;;;;;5034051;28;20030;-66
2022/11/23 01:11:43;;;;;;;9.32;4.30;;;10.50;84.70;;;;;;5033903;28;20081;-66
2022/11/23 01:14:09;;;;;;;11.10;4.80;;;10.50;84.60;;;;;;5032333;28;20040;-66
2022/11/23 01:16:39;;;;;;;10.90;4.82;;;10.50;84.60;;;;;;5033878;28;20021;-66
2022/11/23 01:19:11;;;;;;;11.60;5.07;;;10.50;84.70;;;;;;5031056;28;20425;-66
2022/11/23 01:21:37;;;;;;;13.35;5.00;;;10.50;84.70;;;;;;5019479;28;20017;-66
2022/11/23 01:24:07;;;;;;;12.75;4.43;;;10.50;84.70;;;;;;5031760;28;20026;-67
2022/11/23 01:26:37;;;;;;;11.38;5.03;;;10.50;84.70;;;;;;5047938;28;20025;-66
2022/11/23 01:29:02;;;;;;;12.20;4.22;;;10.50;84.70;;;;;;5015194;28;20086;-66
2022/11/23 01:31:28;;;;;;;9.50;3.72;;;10.50;84.70;;;;;;5032354;28;20078;-67
2022/11/23 01:33:56;;;;;;;10.23;4.50;;;10.50;84.70;;;;;;5032446;28;20442;-66
2022/11/23 01:36:24;;;;;;;10.55;4.18;;;10.50;84.70;;;;;;5032610;28;20026;-66
2022/11/23 01:38:50;;;;;;;10.32;4.15;;;10.50;84.70;;;;;;5034122;28;20404;-66
2022/11/23 01:41:25;;;;;;;12.63;4.32;;;10.50;84.60;;;;;;5033268;28;20108;-66
2022/11/23 01:43:51;;;;;;;10.25;3.88;;;10.60;84.70;;;;;;5031293;28;20028;-65
2022/11/23 01:46:18;;;;;;;8.95;4.63;;;10.60;84.70;;;;;;5026545;28;20032;-67
2022/11/23 01:49:04;;;;;;;12.18;3.92;;;10.60;84.60;;;;;;5032657;28;20029;-67
2022/11/23 01:51:40;;;;;;;10.02;3.63;;;10.60;84.50;;;;;;5030754;28;20025;-66
2022/11/23 01:54:12;;;;;;;9.35;3.67;;;10.60;84.60;;;;;;5033451;28;20112;-67
2022/11/23 01:56:44;;;;;;;12.20;3.53;;;10.60;84.60;;;;;;5033814;28;20033;-66
2022/11/23 01:59:15;;;;;;;10.40;4.25;;;10.60;84.60;;;;;;5032758;28;20075;-66
2022/11/23 02:01:41;;;;;;;9.68;3.58;;;10.60;84.60;;;;;;5032595;28;20470;-66
2022/11/23 02:04:12;;;;;;;10.50;4.35;;;10.60;84.60;;;;;;5032774;28;20152;-66
2022/11/23 02:06:44;;;;;;;7.18;2.90;;;10.60;84.50;;;;;;5032557;28;20533;-66
2022/11/23 02:09:10;;;;;;;13.07;4.25;;;10.60;84.50;;;;;;5033515;28;20030;-66
2022/11/23 02:11:36;;;;;;;9.13;3.53;;;10.60;84.50;;;;;;5032729;28;20056;-67
2022/11/23 02:14:02;;;;;;;10.68;3.90;;;10.60;84.40;;;;;;5023374;28;20037;-67
2022/11/23 02:16:29;;;;;;;7.32;2.95;;;10.60;84.40;;;;;;5033013;28;20029;-67
2022/11/23 02:18:55;;;;;;;10.20;3.83;;;10.60;84.40;;;;;;5032809;28;20127;-66
2022/11/23 02:21:21;;;;;;;8.52;3.45;;;10.60;84.40;;;;;;5035464;28;20045;-66
2022/11/23 02:23:58;;;;;;;8.73;2.80;;;10.60;84.40;;;;;;5035996;28;20036;-66
2022/11/23 02:26:29;;;;;;;7.30;3.45;;;10.60;84.40;;;;;;5035716;28;20422;-66
2022/11/23 02:29:06;;;;;;;;;;;10.60;84.40;;;;;;5036657;28;20029;-66
2022/11/23 02:31:32;;;;;;;11.95;3.50;;;10.60;84.30;;;;;;5035178;28;19940;-66
2022/11/23 02:33:57;;;;;;;10.38;3.47;;;10.60;84.30;;;;;;5035324;28;20052;-66
2022/11/23 02:36:29;;;;;;;8.43;2.70;;;10.60;84.30;;;;;;5034695;28;20025;-67
2022/11/23 02:38:56;;;;;;;11.00;3.30;;;10.60;84.30;;;;;;5036135;28;20095;-67
2022/11/23 02:41:22;;;;;;;10.38;3.55;;;10.60;84.30;;;;;;5035012;28;20478;-67
2022/11/23 02:43:52;;;;;;;10.77;2.83;;;10.60;84.20;;;;;;5026481;28;20030;-67
2022/11/23 02:46:17;;;;;;;10.73;3.17;;;10.60;84.20;;;;;;5035009;28;20095;-66
2022/11/23 02:48:43;;;;;;;7.60;2.90;;;10.60;84.20;;;;;;5035550;28;20033;-66
2022/11/23 02:51:08;;;;;;;9.02;3.05;;;10.60;84.10;;;;;;5034773;28;20029;-67
2022/11/23 02:53:34;;;;;;;11.63;3.20;;;10.60;84.10;;;;;;5034363;28;20029;-66
2022/11/23 02:56:00;;;;;;;10.45;3.40;;;10.50;84.00;;;;;;5018368;28;20116;-66
2022/11/23 02:58:25;;;;;;;10.25;3.45;;;10.60;84.00;;;;;;5034323;28;20094;-67
2022/11/23 03:00:51;;;;;;;9.73;3.38;;;10.60;84.00;;;;;;5033692;28;20037;-67
2022/11/23 03:03:18;;;;;;;6.65;2.80;;;10.60;83.90;;;;;;5033589;28;20037;-67
2022/11/23 03:05:44;;;;;;;9.15;3.90;;;10.60;83.90;;;;;;5036449;28;20018;-67
2022/11/23 03:08:09;;;;;;;7.50;2.97;;;10.60;83.80;;;;;;5035807;28;20442;-67
2022/11/23 03:10:37;;;;;;;12.82;3.10;;;10.60;83.80;;;;;;5018914;28;20457;-67
2022/11/23 03:13:02;;;;;;;7.68;2.55;;;10.60;84.40;;;;;;5033907;28;20188;-67
2022/11/23 03:15:32;;;;;;;8.60;3.03;;;10.60;84.40;;;;;;5016734;28;20371;-65
2022/11/23 03:17:58;;;;;;;10.75;3.38;;;10.60;83.70;;;;;;5035819;28;20018;-65
2022/11/23 03:20:24;;;;;;;10.45;3.15;;;10.60;83.70;;;;;;5018370;28;20038;-67
2022/11/23 03:22:52;;;;;;;8.82;2.85;;;10.60;83.70;;;;;;5038467;28;20133;-67
2022/11/23 03:25:19;;;;;;;7.63;2.35;;;10.60;83.70;;;;;;5043952;28;20053;-67
2022/11/23 03:27:48;;;;;;;7.40;2.95;;;10.50;83.60;;;;;;5032410;28;20354;-67
2022/11/23 03:30:14;;;;;;;9.80;2.97;;;10.60;83.60;;;;;;5034773;28;20033;-67
2022/11/23 03:32:39;;;;;;;7.85;2.42;;;10.60;83.50;;;;;;5033100;28;20033;-67
2022/11/23 03:35:06;;;;;;;7.68;2.85;;;10.60;83.50;;;;;;5035000;28;20037;-67
2022/11/23 03:37:34;;;;;;;8.27;2.63;;;10.60;83.50;;;;;;5034365;28;20025;-67
2022/11/23 03:40:00;;;;;;;6.97;2.33;;;10.60;83.50;;;;;;5033675;28;20026;-67
2022/11/23 03:42:49;;;;;;;6.72;2.03;;;10.60;83.50;;;;;;5012179;28;20467;-67
2022/11/23 03:45:15;;;;;;;9.65;2.83;;;10.60;83.40;;;;;;4996535;28;20088;-67
2022/11/23 03:47:40;;;;;;;9.10;2.35;;;10.60;83.40;;;;;;4997124;28;20038;-67
2022/11/23 03:50:06;;;;;;;9.43;2.38;;;10.60;83.40;;;;;;4997030;28;20451;-66
2022/11/23 03:52:32;;;;;;;8.98;2.33;;;10.60;83.40;;;;;;5011615;28;20030;-66
2022/11/23 03:54:58;;;;;;;8.57;2.70;;;10.60;83.30;;;;;;5004980;28;20037;-66
2022/11/23 03:57:24;;;;;;;6.68;2.55;;;10.60;83.30;;;;;;4995965;28;20030;-67
2022/11/23 03:59:50;;;;;;;8.50;2.35;;;10.60;83.30;;;;;;4995739;28;20161;-67
2022/11/23 04:02:16;;;;;;;8.80;2.70;;;10.60;83.30;;;;;;4997404;28;20026;-67
2022/11/23 04:04:49;;;;;;;9.30;2.85;;;10.60;83.30;;;;;;4996205;28;20064;-67
2022/11/23 04:07:33;;;;;;;7.68;2.58;;;10.60;83.20;;;;;;5011572;28;20040;-67
2022/11/23 04:10:03;;;;;;;9.60;2.83;;;10.60;83.10;;;;;;4997087;28;20454;-67
2022/11/23 04:12:52;;;;;;;8.65;2.30;;;10.60;83.10;;;;;;4996051;28;20141;-67
2022/11/23 04:15:18;;;;;;;9.38;2.30;;;10.60;83.00;;;;;;4994226;28;20034;-67
2022/11/23 04:17:44;;;;;;;9.25;2.75;;;10.60;83.00;;;;;;4970911;28;20130;-66
2022/11/23 04:20:10;;;;;;;12.07;3.22;;;10.60;83.00;;;;;;5015191;28;20608;-66
2022/11/23 04:22:36;;;;;;;10.20;3.10;;;10.70;83.00;;;;;;5037839;28;20035;-66
2022/11/23 04:25:01;;;;;;;10.68;3.03;;;10.70;83.00;;;;;;5038264;28;20025;-66
2022/11/23 04:27:27;;;;;;;7.07;2.58;;;10.70;82.90;;;;;;5033853;28;20053;-66
2022/11/23 04:29:53;;;;;;;8.20;2.42;;;10.70;82.90;;;;;;5033238;28;20048;-66
2022/11/23 04:32:18;;;;;;;8.63;2.60;;;10.70;82.90;;;;;;5033363;28;20025;-66
2022/11/23 04:34:44;;;;;;;9.40;2.33;;;10.70;82.90;;;;;;5022979;28;20025;-66
2022/11/23 04:37:11;;;;;;;8.63;2.30;;;10.70;82.90;;;;;;5028968;28;20077;-66
2022/11/23 04:39:39;;;;;;;9.43;2.25;;;10.70;82.90;;;;;;5016321;28;20032;-66
2022/11/23 04:42:19;;;;;;;7.18;2.90;;;10.60;82.80;;;;;;5032630;28;20029;-66
2022/11/23 04:44:50;;;;;;;9.05;2.80;;;10.60;82.80;;;;;;5032197;28;20021;-66
2022/11/23 04:47:16;;;;;;;8.93;2.55;;;10.60;82.80;;;;;;5033105;28;20030;-66
2022/11/23 04:49:44;;;;;;;11.25;2.70;;;10.60;82.80;;;;;;5048827;28;20063;-66
2022/11/23 04:52:11;;;;;;;7.63;2.85;;;10.60;82.70;;;;;;5048008;28;20072;-67
2022/11/23 04:54:42;;;;;;;8.13;2.67;;;10.60;82.70;;;;;;5046281;28;20124;-67
2022/11/23 04:57:08;;;;;;;9.65;2.15;;;10.60;82.70;;;;;;5032965;28;20112;-67
2022/11/23 04:59:35;;;;;;;11.45;2.90;;;10.60;82.70;;;;;;5033203;28;20018;-67
2022/11/23 05:02:01;;;;;;;7.57;2.72;;;10.60;82.70;;;;;;5045316;28;20026;-67
2022/11/23 05:04:45;;;;;;;9.40;2.67;;;10.60;82.60;;;;;;5033552;28;20037;-67
2022/11/23 05:07:12;;;;;;;7.22;1.80;;;10.60;82.60;;;;;;5049476;28;20033;-67
2022/11/23 05:09:39;;;;;;;8.15;2.55;;;10.50;82.60;;;;;;5015084;28;20120;-67
2022/11/23 05:12:12;;;;;;;9.85;2.45;;;10.60;82.60;;;;;;5043947;28;20033;-67
2022/11/23 05:14:38;;;;;;;8.40;2.47;;;10.50;82.50;;;;;;5033445;28;20029;-66
2022/11/23 05:17:04;;;;;;;6.95;2.30;;;10.50;82.60;;;;;;5030178;28;20100;-66
2022/11/23 05:19:30;;;;;;;8.20;2.42;;;10.50;82.50;;;;;;5048176;28;20040;-66
2022/11/23 05:21:56;;;;;;;9.45;2.40;;;10.50;82.50;;;;;;5032428;28;20033;-66
2022/11/23 05:24:23;;;;;;;11.88;3.15;;;10.50;82.50;;;;;;5045827;28;20025;-66
2022/11/23 05:27:08;;;;;;;9.07;2.38;;;10.50;82.50;;;;;;5031665;28;20134;-66
2022/11/23 05:29:34;;;;;;;7.13;2.25;;;10.50;82.50;;;;;;5034143;28;20410;-66
2022/11/23 05:32:00;;;;;;;9.77;3.10;;;10.50;82.40;;;;;;5032667;28;20033;-66
2022/11/23 05:34:26;;;;;;;10.60;2.35;;;10.50;82.30;;;;;;5024373;28;20349;-66
2022/11/23 05:36:51;;;;;;;8.82;2.20;;;10.50;82.30;;;;;;5032150;28;20037;-66
2022/11/23 05:39:17;;;;;;;8.63;2.13;;;10.50;82.30;;;;;;5032946;28;20028;-66
2022/11/23 05:41:44;;;;;;;11.75;2.42;;;10.50;82.80;;;;;;5015544;28;20033;-66
2022/11/23 05:44:32;;;;;;;10.32;2.95;;;10.50;82.20;;;;;;5032129;28;20023;-66
2022/11/23 05:46:58;;;;;;;8.75;3.15;;;10.50;82.10;;;;;;5031491;28;20112;-66
2022/11/23 05:49:27;;;;;;;8.60;2.33;;;10.50;82.10;;;;;;5018612;28;20116;-67
2022/11/23 05:51:52;;;;;;;8.70;2.20;;;10.50;82.10;;;;;;5042018;28;20220;-66
2022/11/23 05:54:18;;;;;;;9.93;2.10;;;10.50;82.10;;;;;;5035072;28;20025;-66
2022/11/23 05:56:54;;;;;;;7.57;2.47;;;10.50;82.00;;;;;;5021682;28;20100;-66
2022/11/23 05:59:23;;;;;;;8.30;2.58;;;10.50;82.10;;;;;;5035439;28;20048;-66
2022/11/23 06:01:54;;;;;;;11.32;2.33;;;10.50;82.00;;;;;;5046125;28;20082;-66
2022/11/23 06:04:26;;;;;;;8.90;3.10;;;10.50;82.00;;;;;;5034928;28;20040;-66
2022/11/23 06:06:53;;;;;;;7.90;2.47;;;10.60;82.00;;;;;;5036863;28;20017;-66
2022/11/23 06:09:19;;;;;;;11.60;2.53;;;10.60;82.00;;;;;;5050931;28;20037;-66
2022/11/23 06:11:47;;;;;;;9.30;2.50;;;10.50;81.90;;;;;;5051774;28;20026;-67
2022/11/23 06:14:16;;;;;;;10.95;2.53;;;10.50;81.90;;;;;;5034590;28;20025;-66
2022/11/23 06:16:44;;;;;;;10.40;2.58;;;10.50;82.00;;;;;;5033765;28;20111;-66
2022/11/23 06:19:19;;;;;;;14.57;2.85;;;10.50;82.00;;;;;;5043271;28;20045;-67
2022/11/23 06:21:45;;;;;;;8.82;2.40;;;10.50;81.90;;;;;;5038426;28;20488;-67
2022/11/23 06:24:11;;;;;;;12.07;2.92;;;10.50;81.90;;;;;;5034643;28;20029;-67
2022/11/23 06:26:37;;;;;;;7.82;2.22;;;10.50;81.90;;;;;;5036256;28;20116;-67
2022/11/23 06:29:03;;;;;;;7.20;2.65;;;10.50;81.90;;;;;;5017134;28;20211;-67
2022/11/23 06:31:29;;;;;;;14.13;3.00;;;10.50;81.80;;;;;;5035943;28;20035;-67
2022/11/23 06:33:54;;;;;;;14.20;2.80;;;10.50;81.80;;;;;;5032535;28;20029;-67
2022/11/23 06:36:20;;;;;;;12.13;3.33;;;10.50;81.70;;;;;;5035598;28;20029;-67
2022/11/23 06:38:48;;;;;;;11.38;2.83;;;10.50;81.70;;;;;;5034913;28;20524;-67
2022/11/23 06:41:21;;;;;;;8.63;2.28;;;10.50;81.80;;;;;;5044483;28;20026;-67
2022/11/23 06:43:47;;;;;;;8.70;2.40;;;10.50;81.80;;;;;;5034487;28;20159;-68
2022/11/23 06:46:20;;;;;;;8.75;2.65;;;10.50;81.80;;;;;;5034755;28;20026;-67
2022/11/23 06:48:46;;;;;;;8.50;2.10;;;10.50;81.70;;;;;;5048796;28;20107;-67
2022/11/23 06:51:13;;;;;;;10.25;2.70;;;10.50;81.70;;;;;;5034092;28;20036;-67
2022/11/23 06:53:40;;;;;;;9.63;2.85;;;10.50;81.60;;;;;;5033710;28;20025;-67
2022/11/23 06:56:07;;;;;;;10.18;2.45;;;10.50;81.60;;;;;;5034566;28;20124;-67
2022/11/23 06:58:34;;;;;;;10.43;2.83;;;10.50;81.50;;;;;;5032797;28;20026;-67
2022/11/23 07:01:05;;;;;;;9.93;2.63;;;10.50;81.40;;;;;;5034624;28;20369;-67
2022/11/23 07:03:37;;;;;;;10.52;2.80;;;10.50;81.30;;;;;;5035253;28;20018;-67
2022/11/23 07:06:11;;;;;;;10.38;2.72;;;10.50;81.30;;;;;;5034693;28;20033;-67
2022/11/23 07:08:42;;;;;;;15.35;3.05;;;10.40;81.20;;;;;;5027077;28;20064;-67
2022/11/23 07:11:28;;;;;;;9.57;2.25;;;10.40;81.10;;;;;;5033617;28;20033;-67
2022/11/23 07:13:54;;;;;;;11.23;2.30;;;10.40;81.10;;;;;;5034237;28;20416;-67
2022/11/23 07:16:20;;;;;;;12.65;2.50;;;10.40;81.20;;;;;;5048635;28;20026;-67
2022/11/23 07:18:49;;;;;;;10.10;2.60;;;10.40;81.00;;;;;;5032303;28;20034;-67
2022/11/23 07:21:15;;;;;;;11.52;2.80;;;10.40;81.00;;;;;;5036029;28;20029;-67
2022/11/23 07:23:41;;;;;;;13.07;3.38;;;10.40;81.00;;;;;;5033774;28;20018;-67
2022/11/23 07:26:08;;;;;;;8.30;2.55;;;10.40;80.90;;;;;;5019067;28;20025;-67
2022/11/23 07:28:33;;;;;;;8.85;2.70;;;10.40;80.80;;;;;;5049391;28;20025;-67
2022/11/23 07:30:59;;;;;;;9.93;2.65;;;10.50;80.80;;;;;;5034335;28;20363;-67
2022/11/23 07:33:26;;;;;;;11.48;2.15;;;10.50;81.50;;;;;;5046826;28;20056;-67
2022/11/23 07:35:52;;;;;;;9.50;2.45;;;10.50;80.80;;;;;;5033601;28;20056;-67
2022/11/23 07:38:19;;;;;;;9.10;2.03;;;10.50;80.80;;;;;;5030098;28;20396;-67
2022/11/23 07:40:49;;;;;;;10.65;2.47;;;10.50;80.70;;;;;;5045694;28;21610;-68
2022/11/23 07:43:32;;;;;;;14.68;2.55;;;10.50;80.60;;;;;;5029702;28;20021;-68
2022/11/23 07:46:00;;;;;;;10.57;2.55;;;10.60;80.60;;;;;;5049410;28;20489;-68
2022/11/23 07:48:25;;;;;;;11.52;2.55;;;10.60;80.60;;;;;;5035897;28;20071;-68
2022/11/23 07:50:53;;;;;;;12.65;2.63;;;10.60;80.50;;;;;;5016868;28;20022;-68
2022/11/23 07:53:18;;;;;;;12.50;2.35;;;10.60;80.50;;;;;;5032220;28;20025;-67
2022/11/23 07:55:44;;;;;;;7.40;2.35;;;10.60;80.50;;;;;;5033939;28;20021;-66
2022/11/23 07:58:10;;;;;;;11.25;2.63;;;10.60;80.60;;;;;;5035878;28;20031;-67
2022/11/23 08:00:36;;;;;;;8.07;2.20;;;10.60;80.60;;;;;;5034815;28;20021;-67
2022/11/23 08:03:03;;;;;;;11.70;3.10;;;10.50;80.60;;;;;;5034478;28;20021;-67
2022/11/23 08:05:31;;;;;;;9.70;2.25;;;10.50;80.80;;;;;;5033816;28;20021;-67
2022/11/23 08:08:01;;;;;;;9.90;2.53;;;10.50;80.80;;;;;;5042153;28;20144;-67
2022/11/23 08:10:30;;;;;;;10.40;2.80;;;10.50;80.90;;;;;;5033649;28;20429;-67
2022/11/23 08:12:57;;;;;;;9.40;2.30;;;10.50;81.00;;;;;;5033397;28;20152;-67
2022/11/23 08:15:23;;;;;;;15.98;2.40;;;10.50;81.00;;;;;;5034389;28;20060;-67
2022/11/23 08:17:57;;;;;;;12.07;2.78;;;10.50;81.00;;;;;;5032961;28;20132;-66
2022/11/23 08:20:22;;;;;;;12.65;2.38;;;10.50;81.00;;;;;;5034307;28;20354;-66
2022/11/23 08:22:48;;;;;;;10.07;2.97;;;10.50;81.10;;;;;;5030339;28;20022;-66
2022/11/23 08:25:14;;;;;;;8.45;2.40;;;10.60;81.10;;;;;;5033152;28;20036;-66
2022/11/23 08:27:39;;;;;;;12.27;2.28;;;10.60;81.10;;;;;;5034269;28;20025;-67
2022/11/23 08:30:06;;;;;;;11.93;3.00;;;10.60;81.00;;;;;;5032149;28;20123;-66
2022/11/23 08:32:31;;;;;;;11.90;3.05;;;10.60;81.00;;;;;;5032948;28;20421;-66
2022/11/23 08:34:57;;;;;;;9.75;2.38;;;10.70;80.90;;;;;;5044062;28;20029;-67
2022/11/23 08:37:23;;;;;;;10.88;2.58;;;10.70;80.80;;;;;;5032792;28;20076;-67
2022/11/23 08:39:48;;;;;;;11.63;3.30;;;10.70;80.70;;;;;;5030951;28;20123;-67
2022/11/23 08:42:14;;;;;;;10.52;2.83;;;10.70;80.60;;;;;;5028299;28;20025;-66
2022/11/23 08:44:39;;;;;;;11.43;3.42;;;10.70;80.60;;;;;;5029150;28;20469;-67
2022/11/23 08:47:05;;;;;;;13.32;2.53;;;10.80;80.60;;;;;;5031767;28;20030;-67
2022/11/23 08:49:31;;;;;;;10.02;2.45;;;10.80;80.50;;;;;;5047566;28;20060;-67
2022/11/23 08:51:57;;;;;;;11.35;2.70;;;10.90;80.30;;;;;;5031288;28;20034;-67
2022/11/23 08:54:23;;;;;;;10.55;2.40;;;10.90;80.10;;;;;;5031677;28;20033;-65
2022/11/23 08:56:49;;;;;;;9.88;2.58;;;11.10;80.50;;;;;;5030996;28;20037;-64
2022/11/23 08:59:16;;;;;;;9.40;2.38;;;11.20;80.30;;;;;;5033367;28;20025;-64
2022/11/23 09:01:42;;;;;;;10.30;2.50;;;11.30;79.20;;;;;;5029425;28;20029;-66
2022/11/23 09:04:08;;;;;;;11.75;3.10;;;11.50;78.90;;;;;;5028792;28;20083;-67
2022/11/23 09:06:34;;;;;;;12.02;2.85;;;11.60;78.50;;;;;;5025827;28;21010;-67
2022/11/23 09:09:00;;;;;;;8.60;2.60;;;11.80;78.00;;;;;;5029995;28;20030;-66
2022/11/23 09:11:26;;;;;;;9.65;3.05;;;11.90;78.10;;;;;;5029147;28;20147;-65
2022/11/23 09:13:52;;;;;;;13.27;3.15;;;11.90;77.20;;;;;;5032688;28;20018;-66
2022/11/23 09:16:17;;;;;;;10.38;2.22;;;12.00;77.00;;;;;;5031261;28;20128;-65
2022/11/23 09:18:43;;;;;;;9.93;2.25;;;12.00;77.50;;;;;;5021294;28;20148;-66
2022/11/23 09:21:09;;;;;;;10.30;3.10;;;12.10;76.50;;;;;;5032494;28;20417;-66
2022/11/23 09:23:35;;;;;;;14.85;2.47;;;12.20;76.20;;;;;;5031951;28;20069;-66
2022/11/23 09:26:03;;;;;;;10.82;2.30;;;12.30;75.90;;;;;;5031943;28;20049;-65
2022/11/23 09:28:29;;;;;;;10.32;2.30;;;12.40;75.60;;;;;;5032034;28;20029;-66
2022/11/23 09:30:56;;;;;;;9.00;2.58;;;12.40;75.30;;;;;;5030672;28;20132;-65
2022/11/23 09:33:23;;;;;;;10.38;2.10;;;12.40;75.10;;;;;;5031807;28;20026;-66
2022/11/23 09:35:59;;;;;;;13.32;2.78;;;12.40;74.90;;;;;;5031012;28;20021;-65
2022/11/23 09:38:26;;;;;;;12.57;2.67;;;12.30;74.70;;;;;;5040598;28;20366;-66
2022/11/23 09:41:11;;;;;;;7.68;2.55;;;12.30;74.70;;;;;;5031380;28;20061;-67
2022/11/23 09:43:55;;;;;;;13.93;2.47;;;12.20;74.60;;;;;;5020547;28;20064;-67
2022/11/23 09:46:45;;;;;;;10.20;2.50;;;12.10;74.30;;;;;;5025200;28;20037;-66
2022/11/23 09:49:15;;;;;;;11.63;2.58;;;12.10;74.20;;;;;;5033345;28;20040;-67
2022/11/23 09:51:43;;;;;;;7.50;2.13;;;12.10;74.30;;;;;;5029797;28;20116;-67
2022/11/23 09:54:32;;;;;;;11.25;3.40;;;12.20;74.00;;;;;;5031956;28;20025;-68
2022/11/23 09:56:58;;;;;;;11.07;2.35;;;12.30;73.40;;;;;;5043210;28;20030;-67
2022/11/23 09:59:39;;;;;;;10.13;2.13;;;12.40;73.20;;;;;;5032499;28;20447;-67
2022/11/23 10:02:30;;;;;;;10.63;3.13;;;12.60;72.80;;;;;;5031858;28;20022;-68
2022/11/23 10:04:59;;;;;;;10.40;3.00;;;12.80;72.40;;;;;;5029717;28;20095;-68
2022/11/23 10:07:53;;;;;;;9.40;2.28;;;13.00;71.90;;;;;;5029784;28;20087;-68
2022/11/23 10:10:43;;;;;;;7.22;2.50;;;13.20;71.10;;;;;;5026903;28;20037;-68
2022/11/23 10:13:20;;;;;;;9.63;2.85;;;13.30;70.70;;;;;;5029570;28;20026;-67
2022/11/23 10:16:18;;;;;;;8.57;1.77;;;13.30;70.50;;;;;;5029993;28;20091;-68
2022/11/23 10:19:13;;;;;;;8.15;2.38;;;13.30;70.00;;;;;;5026340;28;20132;-68
2022/11/23 10:21:54;;;;;;;7.97;2.20;;;13.40;69.80;;;;;;5023816;28;20021;-68
2022/11/23 10:24:31;;;;;;;8.13;1.70;;;13.50;69.60;;;;;;5032727;28;20030;-68
2022/11/23 10:26:57;;;;;;;8.63;2.00;;;13.50;69.30;;;;;;5031518;28;20395;-68
2022/11/23 10:29:40;;;;;;;12.48;2.60;;;13.60;69.00;;;;;;5032435;28;20037;-68
2022/11/23 10:32:24;;;;;;;12.00;2.45;;;13.60;68.70;;;;;;5030131;28;20083;-69
2022/11/23 10:35:03;;;;;;;10.13;2.03;;;13.60;68.60;;;;;;5025688;28;20171;-67
2022/11/23 10:37:28;;;;;;;9.40;2.40;;;13.70;68.30;;;;;;5031140;28;20358;-69
2022/11/23 10:39:54;;;;;;;8.55;2.25;;;13.70;68.10;;;;;;5033262;28;20091;-69
2022/11/23 10:42:43;;;;;;;11.10;2.03;;;13.80;67.90;;;;;;5036549;28;20090;-69
2022/11/23 10:45:22;;;;;;;8.45;2.03;;;13.80;67.50;;;;;;5026607;28;20409;-68
2022/11/23 10:47:58;;;;;;;7.15;1.60;;;13.70;67.50;;;;;;5034201;28;20021;-68
2022/11/23 10:50:36;;;;;;;10.25;2.10;;;13.80;67.50;;;;;;5035432;28;20307;-68
2022/11/23 10:53:04;;;;;;;8.10;2.00;;;13.80;67.10;;;;;;5033082;28;20410;-68
2022/11/23 10:55:33;;;;;;;5.13;1.63;;;13.80;66.90;;;;;;5035428;28;20124;-68
2022/11/23 10:57:59;;;;;;;9.65;2.40;;;13.80;66.80;;;;;;5036792;28;20033;-69
2022/11/23 11:00:27;;;;;;;10.10;1.85;;;13.80;66.70;;;;;;5032518;28;20040;-70
2022/11/23 11:02:56;;;;;;;8.10;1.90;;;13.90;66.50;;;;;;5033667;28;20038;-69
2022/11/23 11:05:25;;;;;;;6.72;1.73;;;13.80;66.40;;;;;;5029215;28;20017;-69
2022/11/23 11:07:51;;;;;;;9.60;1.90;;;13.70;66.40;;;;;;5036729;28;20167;-69
2022/11/23 11:10:35;;;;;;;9.70;2.88;;;13.60;66.30;;;;;;5033400;28;20342;-68
2022/11/23 11:13:01;;;;;;;11.05;2.38;;;13.60;66.10;;;;;;5036098;28;20032;-69
2022/11/23 11:15:27;;;;;;;10.25;2.60;;;13.60;66.50;;;;;;5031388;28;20152;-68
2022/11/23 11:17:57;;;;;;;8.77;2.45;;;13.50;66.50;;;;;;5034126;28;20120;-69
2022/11/23 11:20:34;;;;;;;9.32;2.20;;;13.40;66.50;;;;;;5033723;28;20059;-68
2022/11/23 11:23:22;;;;;;;8.55;1.83;;;13.40;66.50;;;;;;5034649;28;20037;-68
2022/11/23 11:25:49;;;;;;;7.15;1.80;;;13.30;66.70;;;;;;5040947;28;20041;-68
2022/11/23 11:28:28;;;;;;;7.50;1.65;;;13.20;66.80;;;;;;5034972;28;20061;-69
2022/11/23 11:31:17;;;;;;;8.90;2.22;;;13.10;66.70;;;;;;5032613;28;20044;-69
2022/11/23 11:34:01;;;;;;;7.40;1.52;;;13.10;66.90;;;;;;5031330;28;20033;-69
2022/11/23 11:36:33;;;;;;;8.60;2.10;;;13.00;66.80;;;;;;5030846;28;20048;-69
2022/11/23 11:39:03;;;;;;;9.32;2.13;;;12.90;67.00;;;;;;5031526;28;20044;-69
2022/11/23 11:41:29;;;;;;;5.75;1.45;;;12.80;67.00;;;;;;5033823;28;20557;-68
2022/11/23 11:44:01;;;;;;;7.93;1.90;;;12.70;67.20;;;;;;5035468;28;20044;-69
2022/11/23 11:46:35;;;;;;;9.85;2.03;;;12.70;67.10;;;;;;5031944;28;20040;-69
2022/11/23 11:49:11;;;;;;;6.95;1.88;;;12.60;67.10;;;;;;5033810;28;20152;-68
2022/11/23 11:51:45;;;;;;;9.77;1.63;;;12.60;67.10;;;;;;5030341;28;20036;-69
2022/11/23 11:54:25;;;;;;;8.27;1.88;;;12.60;67.10;;;;;;5013583;28;20066;-69
2022/11/23 11:56:54;;;;;;;10.00;1.90;;;12.50;67.00;;;;;;5032512;28;20033;-69
2022/11/23 11:59:42;;;;;;;6.38;1.60;;;12.50;67.10;;;;;;5034465;28;20041;-69
2022/11/23 12:02:35;;;;;;;7.03;1.77;;;12.50;67.10;;;;;;5024007;28;20018;-69
2022/11/23 12:05:35;;;;;;;7.10;1.65;;;12.50;67.10;;;;;;5034281;28;20022;-69
2022/11/23 12:08:16;;;;;;;6.93;2.13;;;12.50;67.10;;;;;;5034483;28;20087;-69
2022/11/23 12:10:57;;;;;;;8.65;2.00;;;12.50;67.20;;;;;;5035969;28;20082;-69
2022/11/23 12:13:36;;;;;;;4.30;1.13;;;12.40;67.20;;;;;;5034488;28;20475;-69
2022/11/23 12:16:31;;;;;;;6.38;1.70;;;12.40;67.30;;;;;;5034616;28;20040;-69
2022/11/23 12:19:19;;;;;;;6.80;1.80;;;12.40;67.20;;;;;;5035305;28;20041;-69
2022/11/23 12:22:06;;;;;;;13.70;2.33;;;12.30;67.40;;;;;;5033362;28;20029;-69
2022/11/23 12:24:44;;;;;;;6.93;1.60;;;12.30;67.30;;;;;;5023995;28;20025;-69
2022/11/23 12:27:42;;;;;;;7.88;2.38;;;12.30;67.30;;;;;;5035236;28;20030;-69
2022/11/23 12:30:34;;;;;;;8.05;1.40;;;12.40;67.20;;;;;;5033649;28;20037;-69
2022/11/23 12:33:38;;;;;;;7.97;1.73;;;12.30;67.10;;;;;;5029088;28;20465;-69
2022/11/23 12:36:45;;;;;;;6.45;1.63;;;12.40;67.10;;;;;;5035613;28;20044;-69
2022/11/23 12:39:39;;;;;;;6.38;1.60;;;12.40;67.10;;;;;;5034582;28;20045;-69
2022/11/23 12:42:23;;;;;;;6.05;1.88;;;12.30;67.00;;;;;;5017382;28;20052;-69
2022/11/23 12:44:55;;;;;;;8.45;1.90;;;12.30;67.00;;;;;;5050844;28;20374;-69
2022/11/23 12:47:47;;;;;;;5.65;1.30;;;12.30;67.00;;;;;;5034826;28;20060;-69
2022/11/23 12:50:29;;;;;;;6.93;1.52;;;12.30;66.80;;;;;;5034032;28;20033;-69
2022/11/23 12:53:16;;;;;;;6.80;1.90;;;12.30;66.80;;;;;;5035049;28;20354;-69
2022/11/23 12:56:06;;;;;;;9.25;1.90;;;12.30;66.70;;;;;;5034765;28;20048;-69
2022/11/23 12:58:34;;;;;;;3.90;1.13;;;12.30;66.70;;;;;;5035024;28;20113;-69
2022/11/23 13:01:02;;;;;;;8.70;1.60;;;12.30;66.80;;;;;;5033934;28;20033;-69